sensor_id;sensor_type;location;lat;lon;timestamp;temperature;humidity
52439;DHT22;73188;52.948;6.012;2024-02-04T00:08:39;12.80;99.90
52439;DHT22;73188;52.948;6.012;2024-02-04T00:19:04;12.80;99.90
52439;DHT22;73188;52.948;6.012;2024-02-04T00:29:30;12.60;99.90
52439;DHT22;73188;52.948;6.012;2024-02-04T00:39:56;12.60;99.90
52439;DHT22;73188;52.948;6.012;2024-02-04T00:50:22;12.50;99.90
52439;DHT22;73188;52.948;6.012;2024-02-04T01:00:47;12.50;99.90
52439;DHT22;73188;52.948;6.012;2024-02-04T01:11:14;12.30;99.90
52439;DHT22;73188;52.948;6.012;2024-02-04T01:21:40;12.30;99.90
52439;DHT22;73188;52.948;6.012;2024-02-04T01:32:06;12.20;99.90
52439;DHT22;73188;52.948;6.012;2024-02-04T01:42:32;12.20;99.90
52439;DHT22;73188;52.948;6.012;2024-02-04T01:52:58;12.00;99.90
52439;DHT22;73188;52.948;6.012;2024-02-04T02:03:24;12.00;99.90
52439;DHT22;73188;52.948;6.012;2024-02-04T02:13:57;12.00;99.90
52439;DHT22;73188;52.948;6.012;2024-02-04T02:24:29;12.30;99.90
52439;DHT22;73188;52.948;6.012;2024-02-04T02:34:58;12.40;99.90
52439;DHT22;73188;52.948;6.012;2024-02-04T02:45:24;12.30;99.90
52439;DHT22;73188;52.948;6.012;2024-02-04T02:55:51;12.20;99.90
52439;DHT22;73188;52.948;6.012;2024-02-04T03:06:17;12.10;99.90
52439;DHT22;73188;52.948;6.012;2024-02-04T03:16:46;12.10;99.90
52439;DHT22;73188;52.948;6.012;2024-02-04T03:27:11;12.10;99.90
52439;DHT22;73188;52.948;6.012;2024-02-04T03:37:37;12.00;99.90
52439;DHT22;73188;52.948;6.012;2024-02-04T03:48:03;12.10;99.90
52439;DHT22;73188;52.948;6.012;2024-02-04T03:58:30;12.20;99.90
52439;DHT22;73188;52.948;6.012;2024-02-04T04:08:58;12.20;99.90
52439;DHT22;73188;52.948;6.012;2024-02-04T04:19:24;12.20;99.90
52439;DHT22;73188;52.948;6.012;2024-02-04T04:29:50;12.30;99.90
52439;DHT22;73188;52.948;6.012;2024-02-04T04:40:16;12.40;99.90
52439;DHT22;73188;52.948;6.012;2024-02-04T04:50:42;12.30;99.90
52439;DHT22;73188;52.948;6.012;2024-02-04T05:01:08;12.20;99.90
52439;DHT22;73188;52.948;6.012;2024-02-04T05:11:33;12.10;99.90
52439;DHT22;73188;52.948;6.012;2024-02-04T05:21:59;12.00;99.90
52439;DHT22;73188;52.948;6.012;2024-02-04T05:32:25;11.90;99.90
52439;DHT22;73188;52.948;6.012;2024-02-04T05:42:51;11.90;99.90
52439;DHT22;73188;52.948;6.012;2024-02-04T05:53:17;11.70;99.90
52439;DHT22;73188;52.948;6.012;2024-02-04T06:03:43;11.70;99.90
52439;DHT22;73188;52.948;6.012;2024-02-04T06:14:09;11.60;99.90
52439;DHT22;73188;52.948;6.012;2024-02-04T06:24:34;11.60;99.90
52439;DHT22;73188;52.948;6.012;2024-02-04T06:35:02;11.60;99.90
52439;DHT22;73188;52.948;6.012;2024-02-04T06:45:28;11.60;99.90
52439;DHT22;73188;52.948;6.012;2024-02-04T06:55:54;11.60;99.90
52439;DHT22;73188;52.948;6.012;2024-02-04T07:06:20;11.60;99.90
52439;DHT22;73188;52.948;6.012;2024-02-04T07:16:45;11.60;99.90
52439;DHT22;73188;52.948;6.012;2024-02-04T07:27:11;11.50;99.90
52439;DHT22;73188;52.948;6.012;2024-02-04T07:37:37;11.60;99.90
52439;DHT22;73188;52.948;6.012;2024-02-04T07:48:04;11.70;99.90
52439;DHT22;73188;52.948;6.012;2024-02-04T07:58:30;11.90;99.90
52439;DHT22;73188;52.948;6.012;2024-02-04T08:08:55;11.90;99.90
52439;DHT22;73188;52.948;6.012;2024-02-04T08:31:12;12.20;99.90
52439;DHT22;73188;52.948;6.012;2024-02-04T08:41:45;12.30;99.90
52439;DHT22;73188;52.948;6.012;2024-02-04T08:52:11;12.40;99.90
52439;DHT22;73188;52.948;6.012;2024-02-04T09:02:37;12.50;99.90
52439;DHT22;73188;52.948;6.012;2024-02-04T09:13:03;12.60;99.90
52439;DHT22;73188;52.948;6.012;2024-02-04T09:23:29;12.90;99.90
52439;DHT22;73188;52.948;6.012;2024-02-04T09:34:01;13.00;99.90
52439;DHT22;73188;52.948;6.012;2024-02-04T09:44:27;13.20;99.90
52439;DHT22;73188;52.948;6.012;2024-02-04T09:54:59;13.30;99.90
52439;DHT22;73188;52.948;6.012;2024-02-04T10:05:29;14.80;99.90
52439;DHT22;73188;52.948;6.012;2024-02-04T10:15:55;15.20;99.90
52439;DHT22;73188;52.948;6.012;2024-02-04T10:26:30;14.40;99.90
52439;DHT22;73188;52.948;6.012;2024-02-04T10:36:57;14.60;99.90
52439;DHT22;73188;52.948;6.012;2024-02-04T10:47:32;14.60;99.90
52439;DHT22;73188;52.948;6.012;2024-02-04T10:58:01;14.90;99.90
52439;DHT22;73188;52.948;6.012;2024-02-04T11:08:27;14.60;99.90
52439;DHT22;73188;52.948;6.012;2024-02-04T11:29:56;14.30;99.90
52439;DHT22;73188;52.948;6.012;2024-02-04T11:40:39;14.40;99.90
52439;DHT22;73188;52.948;6.012;2024-02-04T11:51:05;14.30;99.90
52439;DHT22;73188;52.948;6.012;2024-02-04T12:01:31;14.20;99.90
52439;DHT22;73188;52.948;6.012;2024-02-04T12:12:00;14.10;99.90
52439;DHT22;73188;52.948;6.012;2024-02-04T12:22:26;13.90;99.90
52439;DHT22;73188;52.948;6.012;2024-02-04T12:33:03;13.90;99.90
52439;DHT22;73188;52.948;6.012;2024-02-04T12:43:36;13.90;99.90
52439;DHT22;73188;52.948;6.012;2024-02-04T12:54:12;13.90;99.90
52439;DHT22;73188;52.948;6.012;2024-02-04T13:04:40;14.00;99.90
52439;DHT22;73188;52.948;6.012;2024-02-04T13:15:14;14.00;99.90
52439;DHT22;73188;52.948;6.012;2024-02-04T13:25:40;14.00;99.90
52439;DHT22;73188;52.948;6.012;2024-02-04T13:36:12;14.00;99.90
52439;DHT22;73188;52.948;6.012;2024-02-04T13:46:38;14.00;99.90
52439;DHT22;73188;52.948;6.012;2024-02-04T13:57:13;14.00;99.90
52439;DHT22;73188;52.948;6.012;2024-02-04T14:07:39;14.00;99.90
52439;DHT22;73188;52.948;6.012;2024-02-04T14:18:05;13.90;99.90
52439;DHT22;73188;52.948;6.012;2024-02-04T14:28:31;13.90;99.90
52439;DHT22;73188;52.948;6.012;2024-02-04T14:39:06;14.10;99.90
52439;DHT22;73188;52.948;6.012;2024-02-04T14:49:33;14.20;99.90
52439;DHT22;73188;52.948;6.012;2024-02-04T15:00:00;14.30;99.90
52439;DHT22;73188;52.948;6.012;2024-02-04T15:10:26;14.30;99.90
52439;DHT22;73188;52.948;6.012;2024-02-04T15:20:52;14.40;99.90
52439;DHT22;73188;52.948;6.012;2024-02-04T15:31:26;14.60;99.90
52439;DHT22;73188;52.948;6.012;2024-02-04T15:41:53;14.70;99.90
52439;DHT22;73188;52.948;6.012;2024-02-04T15:52:19;14.90;99.90
52439;DHT22;73188;52.948;6.012;2024-02-04T16:02:46;15.00;99.90
52439;DHT22;73188;52.948;6.012;2024-02-04T16:13:16;15.00;99.90
52439;DHT22;73188;52.948;6.012;2024-02-04T16:23:42;15.10;99.90
52439;DHT22;73188;52.948;6.012;2024-02-04T16:34:14;15.20;99.90
52439;DHT22;73188;52.948;6.012;2024-02-04T16:44:39;15.30;99.90
52439;DHT22;73188;52.948;6.012;2024-02-04T16:55:06;15.40;99.90
52439;DHT22;73188;52.948;6.012;2024-02-04T17:05:39;15.50;99.90
52439;DHT22;73188;52.948;6.012;2024-02-04T17:16:17;15.70;99.90
52439;DHT22;73188;52.948;6.012;2024-02-04T17:27:19;16.00;99.90
52439;DHT22;73188;52.948;6.012;2024-02-04T17:37:45;16.20;99.90
52439;DHT22;73188;52.948;6.012;2024-02-04T17:48:11;16.20;99.90
52439;DHT22;73188;52.948;6.012;2024-02-04T17:58:38;16.20;99.90
52439;DHT22;73188;52.948;6.012;2024-02-04T18:09:04;16.30;99.90
52439;DHT22;73188;52.948;6.012;2024-02-04T18:19:35;16.30;99.90
52439;DHT22;73188;52.948;6.012;2024-02-04T18:30:00;16.30;99.90
52439;DHT22;73188;52.948;6.012;2024-02-04T18:40:35;16.30;99.90
52439;DHT22;73188;52.948;6.012;2024-02-04T18:51:04;16.30;99.90
52439;DHT22;73188;52.948;6.012;2024-02-04T19:01:34;16.20;99.90
52439;DHT22;73188;52.948;6.012;2024-02-04T19:12:01;16.10;99.90
52439;DHT22;73188;52.948;6.012;2024-02-04T19:22:27;16.00;99.90
52439;DHT22;73188;52.948;6.012;2024-02-04T19:32:55;15.90;99.90
52439;DHT22;73188;52.948;6.012;2024-02-04T19:43:29;15.80;99.90
52439;DHT22;73188;52.948;6.012;2024-02-04T19:53:54;15.90;99.90
52439;DHT22;73188;52.948;6.012;2024-02-04T20:04:21;16.10;99.90
52439;DHT22;73188;52.948;6.012;2024-02-04T20:14:46;16.00;99.90
52439;DHT22;73188;52.948;6.012;2024-02-04T20:25:15;15.90;99.90
52439;DHT22;73188;52.948;6.012;2024-02-04T20:35:41;15.70;99.90
52439;DHT22;73188;52.948;6.012;2024-02-04T20:46:08;15.60;99.90
52439;DHT22;73188;52.948;6.012;2024-02-04T20:56:34;15.80;99.90
52439;DHT22;73188;52.948;6.012;2024-02-04T21:07:00;15.80;99.90
52439;DHT22;73188;52.948;6.012;2024-02-04T21:17:26;15.70;99.90
52439;DHT22;73188;52.948;6.012;2024-02-04T21:27:52;15.70;99.90
52439;DHT22;73188;52.948;6.012;2024-02-04T21:38:18;15.60;99.90
52439;DHT22;73188;52.948;6.012;2024-02-04T21:48:43;15.50;99.90
52439;DHT22;73188;52.948;6.012;2024-02-04T21:59:09;15.50;99.90
52439;DHT22;73188;52.948;6.012;2024-02-04T22:09:35;15.40;99.90
52439;DHT22;73188;52.948;6.012;2024-02-04T22:20:01;15.40;99.90
52439;DHT22;73188;52.948;6.012;2024-02-04T22:30:29;15.30;99.90
52439;DHT22;73188;52.948;6.012;2024-02-04T22:40:55;15.30;99.90
52439;DHT22;73188;52.948;6.012;2024-02-04T22:51:21;15.30;99.90
52439;DHT22;73188;52.948;6.012;2024-02-04T23:01:47;15.30;99.90
52439;DHT22;73188;52.948;6.012;2024-02-04T23:12:13;15.20;99.90
52439;DHT22;73188;52.948;6.012;2024-02-04T23:22:38;15.20;99.90
52439;DHT22;73188;52.948;6.012;2024-02-04T23:33:04;15.20;99.90
52439;DHT22;73188;52.948;6.012;2024-02-04T23:43:31;15.20;99.90
52439;DHT22;73188;52.948;6.012;2024-02-04T23:53:56;15.20;99.90
